Time,TemperatureF,DewpointF,PressureIn,WindDirection,WindDirectionDegrees,WindSpeedMPH,WindSpeedGustMPH,Humidity,HourlyPrecipIn,Conditions,Clouds,dailyrainin,SoftwareType,DateUTC
2013-04-19 00:10:00,60.8,54.6,29.86,East,90,0.0,-999.0,80,-99.99,,,0.00,Acu-Link.com,2013-04-19 04:10:00,
2013-04-19 00:25:00,61.0,54.4,29.85,ESE,112,1.1,-999.0,79,-99.99,,,0.00,Acu-Link.com,2013-04-19 04:25:00,
2013-04-19 00:41:00,60.8,54.2,29.84,ESE,112,3.2,-999.0,79,-99.99,,,0.00,Acu-Link.com,2013-04-19 04:41:00,
2013-04-19 00:56:00,60.3,53.8,29.83,ESE,112,0.0,-999.0,79,-99.99,,,0.00,Acu-Link.com,2013-04-19 04:56:00,
2013-04-19 01:11:00,60.3,54.1,29.82,ENE,67,1.7,-999.0,80,-99.99,,,0.00,Acu-Link.com,2013-04-19 05:11:00,
2013-04-19 01:26:00,60.4,54.2,29.82,NE,45,0.0,-999.0,80,-99.99,,,0.00,Acu-Link.com,2013-04-19 05:26:00,
2013-04-19 01:42:00,60.6,54.0,29.81,SSW,202,0.0,-999.0,79,-99.99,,,0.00,Acu-Link.com,2013-04-19 05:42:00,
2013-04-19 01:57:00,60.6,54.0,29.80,East,90,1.7,-999.0,79,-99.99,,,0.00,Acu-Link.com,2013-04-19 05:57:00,
2013-04-19 02:12:00,60.4,54.2,29.80,East,90,0.0,-999.0,80,-99.99,,,0.00,Acu-Link.com,2013-04-19 06:12:00,
2013-04-19 02:28:00,60.3,54.1,29.79,East,90,0.0,-999.0,80,-99.99,,,0.00,Acu-Link.com,2013-04-19 06:28:00,
2013-04-19 02:43:00,60.4,54.2,29.78,ESE,112,2.2,-999.0,80,-99.99,,,0.00,Acu-Link.com,2013-04-19 06:43:00,
2013-04-19 02:58:00,60.6,54.4,29.77,ESE,112,0.0,-999.0,80,-99.99,,,0.00,Acu-Link.com,2013-04-19 06:58:00,
2013-04-19 03:14:00,60.8,54.6,29.76,East,90,2.2,-999.0,80,-99.99,,,0.00,Acu-Link.com,2013-04-19 07:14:00,
2013-04-19 03:29:00,60.8,54.6,29.75,NW,315,1.7,-999.0,80,-99.99,,,0.00,Acu-Link.com,2013-04-19 07:29:00,
2013-04-19 03:44:00,60.8,54.9,29.75,NNW,337,4.7,-999.0,81,-99.99,,,0.00,Acu-Link.com,2013-04-19 07:44:00,
2013-04-19 04:00:00,61.7,55.5,29.74,ESE,112,0.0,-999.0,80,-99.99,,,0.00,Acu-Link.com,2013-04-19 08:00:00,
2013-04-19 04:15:00,61.7,55.5,29.74,NE,45,1.1,-999.0,80,-99.99,,,0.00,Acu-Link.com,2013-04-19 08:15:00,
2013-04-19 04:30:00,61.5,55.3,29.73,ENE,67,1.1,-999.0,80,-99.99,,,0.00,Acu-Link.com,2013-04-19 08:30:00,
2013-04-19 04:45:00,61.7,55.8,29.72,South,180,1.7,-999.0,81,-99.99,,,0.00,Acu-Link.com,2013-04-19 08:45:00,
2013-04-19 05:00:00,62.2,56.0,29.72,SE,135,3.7,-999.0,80,-99.99,,,0.00,Acu-Link.com,2013-04-19 09:00:00,
2013-04-19 05:16:00,62.4,55.8,29.72,SSE,157,2.2,-999.0,79,-99.99,,,0.00,Acu-Link.com,2013-04-19 09:16:00,
2013-04-19 05:31:00,62.4,55.8,29.72,South,180,2.2,-999.0,79,-99.99,,,0.00,Acu-Link.com,2013-04-19 09:31:00,
2013-04-19 05:46:00,62.6,56.0,29.72,ENE,67,2.2,-999.0,79,-99.99,,,0.00,Acu-Link.com,2013-04-19 09:46:00,
2013-04-19 06:01:00,62.8,56.2,29.72,SSE,157,2.2,-999.0,79,-99.99,,,0.00,Acu-Link.com,2013-04-19 10:01:00,
2013-04-19 06:16:00,62.4,55.8,29.71,SSW,202,2.2,-999.0,79,-99.99,,,0.00,Acu-Link.com,2013-04-19 10:16:00,
2013-04-19 06:32:00,62.4,55.8,29.70,ESE,112,3.2,-999.0,79,-99.99,,,0.00,Acu-Link.com,2013-04-19 10:32:00,
2013-04-19 06:47:00,62.8,56.2,29.70,ESE,112,3.2,-999.0,79,-99.99,,,0.00,Acu-Link.com,2013-04-19 10:47:00,
2013-04-19 07:02:00,63.0,56.4,29.70,SW,225,3.2,-999.0,79,-99.99,,,0.00,Acu-Link.com,2013-04-19 11:02:00,
2013-04-19 07:18:00,63.5,56.5,29.70,South,180,4.2,-999.0,78,-99.99,,,0.00,Acu-Link.com,2013-04-19 11:18:00,
2013-04-19 07:33:00,63.7,56.7,29.69,SSW,202,4.2,-999.0,78,-99.99,,,0.00,Acu-Link.com,2013-04-19 11:33:00,
2013-04-19 07:49:00,63.9,56.5,29.70,SW,225,2.2,-999.0,77,-99.99,,,0.00,Acu-Link.com,2013-04-19 11:49:00,
2013-04-19 08:04:00,64.2,56.5,29.70,SSW,202,1.7,-999.0,76,-99.99,,,0.00,Acu-Link.com,2013-04-19 12:04:00,
2013-04-19 08:19:00,64.2,56.5,29.69,SSW,202,2.2,-999.0,76,-99.99,,,0.00,Acu-Link.com,2013-04-19 12:19:00,
2013-04-19 08:35:00,64.2,56.5,29.69,SSW,202,1.7,-999.0,76,-99.99,,,0.00,Acu-Link.com,2013-04-19 12:35:00,
2013-04-19 08:50:00,64.4,56.7,29.68,SSE,157,3.2,-999.0,76,-99.99,,,0.00,Acu-Link.com,2013-04-19 12:50:00,
2013-04-19 09:05:00,64.8,57.1,29.67,South,180,1.7,-999.0,76,-99.99,,,0.00,Acu-Link.com,2013-04-19 13:05:00,
2013-04-19 09:21:00,66.2,57.3,29.65,ESE,112,2.2,-999.0,73,-99.99,,,0.00,Acu-Link.com,2013-04-19 13:21:00,
2013-04-19 09:36:00,67.5,57.4,29.65,ESE,112,3.7,-999.0,70,-99.99,,,0.00,Acu-Link.com,2013-04-19 13:36:00,
2013-04-19 09:51:00,67.8,57.7,29.64,WNW,292,1.1,-999.0,70,-99.99,,,0.00,Acu-Link.com,2013-04-19 13:51:00,
2013-04-19 10:06:00,68.5,57.5,29.63,SSW,202,5.8,-999.0,68,-99.99,,,0.00,Acu-Link.com,2013-04-19 14:06:00,
2013-04-19 10:21:00,69.4,58.0,29.62,South,180,4.2,-999.0,67,-99.99,,,0.00,Acu-Link.com,2013-04-19 14:21:00,
2013-04-19 10:37:00,68.9,57.5,29.61,SW,225,5.8,-999.0,67,-99.99,,,0.00,Acu-Link.com,2013-04-19 14:37:00,
2013-04-19 10:52:00,69.8,57.9,29.57,ENE,67,3.2,-999.0,66,-99.99,,,0.00,Acu-Link.com,2013-04-19 14:52:00,
2013-04-19 11:07:00,70.0,57.7,29.60,SE,135,2.7,-999.0,65,-99.99,,,0.00,Acu-Link.com,2013-04-19 15:07:00,
2013-04-19 11:22:00,70.0,57.7,29.59,ESE,112,4.7,-999.0,65,-99.99,,,0.00,Acu-Link.com,2013-04-19 15:22:00,
2013-04-19 11:37:00,70.2,57.9,29.59,SW,225,2.7,-999.0,65,-99.99,,,0.00,Acu-Link.com,2013-04-19 15:37:00,
2013-04-19 11:53:00,70.3,58.4,29.58,SW,225,6.8,-999.0,66,-99.99,,,0.00,Acu-Link.com,2013-04-19 15:53:00,
2013-04-19 12:08:00,70.7,58.8,29.58,SW,225,3.2,-999.0,66,-99.99,,,0.00,Acu-Link.com,2013-04-19 16:08:00,
2013-04-19 12:23:00,71.2,58.8,29.57,SE,135,3.2,-999.0,65,-99.99,,,0.00,Acu-Link.com,2013-04-19 16:23:00,
2013-04-19 12:39:00,70.9,59.0,29.56,SSW,202,3.2,-999.0,66,-99.99,,,0.00,Acu-Link.com,2013-04-19 16:39:00,
2013-04-19 12:54:00,71.1,59.2,29.57,SE,135,4.2,-999.0,66,-99.99,,,0.00,Acu-Link.com,2013-04-19 16:54:00,
2013-04-19 13:09:00,71.4,59.4,29.55,WNW,292,3.2,-999.0,66,-99.99,,,0.00,Acu-Link.com,2013-04-19 17:09:00,
2013-04-19 13:25:00,72.0,59.6,29.54,SW,225,5.3,-999.0,65,-99.99,,,0.00,Acu-Link.com,2013-04-19 17:25:00,
2013-04-19 13:40:00,71.6,59.6,29.53,SW,225,4.2,-999.0,66,-99.99,,,0.00,Acu-Link.com,2013-04-19 17:40:00,
2013-04-19 13:55:00,71.1,60.0,29.52,ESE,112,1.7,-999.0,68,-99.99,,,0.00,Acu-Link.com,2013-04-19 17:55:00,
2013-04-19 14:11:00,72.0,60.4,29.49,NNE,22,2.2,-999.0,67,-99.99,,,0.00,Acu-Link.com,2013-04-19 18:11:00,
2013-04-19 14:26:00,73.0,61.0,29.47,SSW,202,5.3,-999.0,66,-99.99,,,0.00,Acu-Link.com,2013-04-19 18:26:00,
2013-04-19 14:41:00,72.1,60.1,29.46,South,180,2.2,-999.0,66,-99.99,,,0.00,Acu-Link.com,2013-04-19 18:41:00,
2013-04-19 14:56:00,73.4,60.9,29.45,WSW,247,2.2,-999.0,65,-99.99,,,0.00,Acu-Link.com,2013-04-19 18:56:00,
2013-04-19 15:12:00,72.7,60.2,29.45,SSE,157,2.7,-999.0,65,-99.99,,,0.00,Acu-Link.com,2013-04-19 19:12:00,
2013-04-19 15:27:00,73.0,60.5,29.44,SW,225,4.7,-999.0,65,-99.99,,,0.00,Acu-Link.com,2013-04-19 19:27:00,
2013-04-19 15:42:00,73.0,60.5,29.44,SSW,202,4.2,-999.0,65,-99.99,,,0.00,Acu-Link.com,2013-04-19 19:42:00,
2013-04-19 15:58:00,72.7,60.7,29.44,ESE,112,4.7,-999.0,66,-99.99,,,0.00,Acu-Link.com,2013-04-19 19:58:00,
2013-04-19 16:13:00,72.3,60.7,29.43,SW,225,3.2,-999.0,67,-99.99,,,0.00,Acu-Link.com,2013-04-19 20:13:00,
2013-04-19 16:28:00,72.1,60.9,29.42,SSW,202,2.2,-999.0,68,-99.99,,,0.00,Acu-Link.com,2013-04-19 20:28:00,
2013-04-19 16:44:00,72.0,60.8,29.41,NE,45,2.7,-999.0,68,-99.99,,,0.00,Acu-Link.com,2013-04-19 20:44:00,
2013-04-19 16:59:00,72.1,61.4,29.41,SE,135,4.7,-999.0,69,-99.99,,,0.00,Acu-Link.com,2013-04-19 20:59:00,
2013-04-19 17:14:00,72.1,61.8,29.41,ESE,112,2.2,-999.0,70,-99.99,,,0.00,Acu-Link.com,2013-04-19 21:14:00,
2013-04-19 17:45:00,68.2,62.8,29.40,ESE,112,0.0,-999.0,83,-99.99,,,0.01,Acu-Link.com,2013-04-19 21:45:00,
2013-04-19 18:00:00,66.9,62.9,29.42,ESE,112,4.7,-999.0,87,-99.99,,,0.02,Acu-Link.com,2013-04-19 22:00:00,
2013-04-19 18:15:00,66.6,63.9,29.40,South,180,1.7,-999.0,91,-99.99,,,0.03,Acu-Link.com,2013-04-19 22:15:00,
2013-04-19 18:31:00,65.7,62.0,29.42,West,270,14.0,-999.0,88,-99.99,,,0.05,Acu-Link.com,2013-04-19 22:31:00,
2013-04-19 18:46:00,55.9,52.7,29.50,NW,315,4.7,-999.0,89,-99.99,,,0.44,Acu-Link.com,2013-04-19 22:46:00,
2013-04-19 19:01:00,54.9,52.0,29.49,NW,315,1.7,-999.0,90,-99.99,,,0.46,Acu-Link.com,2013-04-19 23:01:00,
2013-04-19 19:17:00,53.6,50.4,29.54,West,270,2.7,-999.0,89,-99.99,,,0.49,Acu-Link.com,2013-04-19 23:17:00,
2013-04-19 19:32:00,51.6,48.5,29.55,West,270,1.7,-999.0,89,-99.99,,,0.53,Acu-Link.com,2013-04-19 23:32:00,
2013-04-19 19:47:00,51.1,47.7,29.56,SSE,157,0.0,-999.0,88,-99.99,,,0.55,Acu-Link.com,2013-04-19 23:47:00,
2013-04-19 20:02:00,50.7,45.4,29.58,West,270,3.7,-999.0,82,-99.99,,,0.55,Acu-Link.com,2013-04-20 00:02:00,
2013-04-19 20:18:00,50.5,45.2,29.59,West,270,2.7,-999.0,82,-99.99,,,0.55,Acu-Link.com,2013-04-20 00:18:00,
2013-04-19 20:33:00,50.4,45.4,29.59,WSW,247,2.2,-999.0,83,-99.99,,,0.55,Acu-Link.com,2013-04-20 00:33:00,
2013-04-19 20:48:00,50.2,45.9,29.60,West,270,2.2,-999.0,85,-99.99,,,0.55,Acu-Link.com,2013-04-20 00:48:00,
2013-04-19 21:03:00,50.4,44.5,29.60,West,270,3.2,-999.0,80,-99.99,,,0.55,Acu-Link.com,2013-04-20 01:03:00,
2013-04-19 21:18:00,50.7,43.8,29.60,West,270,3.2,-999.0,77,-99.99,,,0.55,Acu-Link.com,2013-04-20 01:18:00,
2013-04-19 21:34:00,50.7,44.1,29.61,West,270,4.2,-999.0,78,-99.99,,,0.55,Acu-Link.com,2013-04-20 01:34:00,
2013-04-19 21:49:00,50.7,44.4,29.61,West,270,3.7,-999.0,79,-99.99,,,0.55,Acu-Link.com,2013-04-20 01:49:00,
2013-04-19 22:04:00,50.7,44.1,29.62,West,270,3.7,-999.0,78,-99.99,,,0.55,Acu-Link.com,2013-04-20 02:04:00,
2013-04-19 22:19:00,50.7,43.8,29.63,West,270,1.7,-999.0,77,-99.99,,,0.55,Acu-Link.com,2013-04-20 02:19:00,
2013-04-19 22:34:00,50.5,44.2,29.64,West,270,1.7,-999.0,79,-99.99,,,0.55,Acu-Link.com,2013-04-20 02:34:00,
2013-04-19 22:50:00,50.4,43.8,29.64,West,270,2.7,-999.0,78,-99.99,,,0.55,Acu-Link.com,2013-04-20 02:50:00,
2013-04-19 23:05:00,50.0,43.1,29.64,West,270,3.7,-999.0,77,-99.99,,,0.55,Acu-Link.com,2013-04-20 03:05:00,
2013-04-19 23:20:00,49.5,42.3,29.65,West,270,4.7,-999.0,76,-99.99,,,0.55,Acu-Link.com,2013-04-20 03:20:00,
2013-04-19 23:35:00,49.1,40.8,29.63,West,270,3.2,-999.0,73,-99.99,,,0.56,Acu-Link.com,2013-04-20 03:35:00,
2013-04-19 23:51:00,48.7,40.1,29.66,West,270,5.8,-999.0,72,-99.99,,,0.56,Acu-Link.com,2013-04-20 03:51:00,